Time;durP1;ratioP1;P1;durP2;ratioP2;P2;SDS_P1;SDS_P2;PMS_P1;PMS_P2;Temp;Humidity;BMP_temperature;BMP_pressure;BME280_temperature;BME280_humidity;BME280_pressure;Samples;Min_cycle;Max_cycle;Signal;HPM_P1;HPM_P2
2022/12/02 00:00:01;;;;;;;28.55;13.68;;;-7.20;99.90;;;;;;5013179;28;20141;-75
2022/12/02 00:02:33;;;;;;;31.83;13.33;;;-7.30;99.90;;;;;;5043761;28;20050;-76
2022/12/02 00:05:20;;;;;;;30.23;14.05;;;-7.30;99.90;;;;;;5013564;28;20299;-75
2022/12/02 00:07:49;;;;;;;27.48;14.38;;;-7.40;99.90;;;;;;5013546;28;20054;-75
2022/12/02 00:10:25;;;;;;;28.52;13.60;;;-7.30;99.90;;;;;;5011771;28;20058;-75
2022/12/02 00:12:53;;;;;;;30.17;13.45;;;-7.30;99.90;;;;;;5013003;28;20060;-80
2022/12/02 00:15:42;;;;;;;38.17;14.80;;;-7.40;99.90;;;;;;5011544;28;20450;-80
2022/12/02 00:18:12;;;;;;;27.20;13.10;;;-7.40;99.90;;;;;;5002613;28;20054;-78
2022/12/02 00:20:41;;;;;;;33.78;14.75;;;-7.40;99.90;;;;;;4999300;28;20052;-80
2022/12/02 00:23:09;;;;;;;37.72;14.45;;;-7.40;99.90;;;;;;5012395;28;20453;-80
2022/12/02 00:25:37;;;;;;;35.75;13.90;;;-7.40;99.90;;;;;;5028355;28;20533;-79
2022/12/02 00:28:05;;;;;;;35.53;13.45;;;-7.40;99.90;;;;;;5011850;28;20045;-80
2022/12/02 00:30:33;;;;;;;33.90;12.75;;;-7.40;99.90;;;;;;5013096;28;20506;-80
2022/12/02 00:33:00;;;;;;;34.25;13.18;;;-7.40;99.90;;;;;;5017735;28;20096;-79
2022/12/02 00:35:28;;;;;;;31.85;12.48;;;-7.40;99.90;;;;;;5014192;28;20058;-80
2022/12/02 00:37:57;;;;;;;36.10;15.00;;;-7.40;99.90;;;;;;5012010;28;20088;-79
2022/12/02 00:40:25;;;;;;;36.22;13.32;;;-7.40;99.90;;;;;;5012977;28;20084;-79
2022/12/02 00:42:53;;;;;;;32.03;13.27;;;-7.40;99.90;;;;;;5013371;28;20057;-78
2022/12/02 00:48:06;;;;;;;29.30;13.90;;;-7.40;99.90;;;;;;5009929;28;20310;-80
2022/12/02 00:50:34;;;;;;;36.67;15.07;;;-7.40;99.90;;;;;;5011383;28;20053;-74
2022/12/02 00:53:03;;;;;;;33.15;13.77;;;-7.40;99.90;;;;;;5011250;28;20144;-75
2022/12/02 00:55:30;;;;;;;33.45;14.18;;;-7.30;99.90;;;;;;5012170;28;20054;-75
2022/12/02 00:57:57;;;;;;;31.92;13.07;;;-7.40;99.90;;;;;;5011710;28;20410;-75
2022/12/02 01:00:25;;;;;;;31.88;14.50;;;-7.40;99.90;;;;;;5010729;28;20046;-75
2022/12/02 01:02:52;;;;;;;39.38;16.63;;;-7.40;99.90;;;;;;4990169;28;20542;-76
2022/12/02 01:05:20;;;;;;;36.13;14.73;;;-7.40;99.90;;;;;;5009942;28;20060;-75
2022/12/02 01:07:47;;;;;;;38.95;15.70;;;-7.40;99.90;;;;;;5012474;28;20046;-75
2022/12/02 01:10:16;;;;;;;34.05;14.30;;;-7.40;99.90;;;;;;5010922;28;20054;-75
2022/12/02 01:12:43;;;;;;;39.67;14.93;;;-7.40;99.90;;;;;;5010820;28;20058;-74
2022/12/02 01:15:12;;;;;;;31.42;14.38;;;-7.50;99.90;;;;;;5010851;28;20391;-74
2022/12/02 01:17:40;;;;;;;31.35;14.05;;;-7.40;99.90;;;;;;5012271;28;20042;-79
2022/12/02 01:20:09;;;;;;;36.45;14.18;;;-7.40;99.90;;;;;;5027104;28;20049;-80
2022/12/02 01:22:36;;;;;;;37.05;15.40;;;-7.40;99.90;;;;;;5012158;28;20531;-79
2022/12/02 01:25:04;;;;;;;38.05;15.68;;;-7.40;99.90;;;;;;5009477;28;20474;-79
2022/12/02 01:27:34;;;;;;;35.17;15.43;;;-7.40;99.90;;;;;;5012252;28;20490;-79
2022/12/02 01:30:02;;;;;;;37.88;15.15;;;-7.50;99.90;;;;;;5010025;28;20487;-79
2022/12/02 01:32:30;;;;;;;37.22;14.85;;;-7.60;99.90;;;;;;5010636;28;20046;-80
2022/12/02 01:34:59;;;;;;;34.70;16.05;;;-7.70;99.90;;;;;;5011845;28;20120;-81
2022/12/02 01:37:26;;;;;;;35.42;14.40;;;-7.70;99.90;;;;;;5010337;28;20498;-81
2022/12/02 01:39:53;;;;;;;34.50;15.85;;;-7.80;99.90;;;;;;5011481;28;20574;-80
2022/12/02 01:42:21;;;;;;;35.92;14.98;;;-7.80;99.90;;;;;;5010454;28;20037;-79
2022/12/02 01:44:50;;;;;;;33.58;14.10;;;-7.80;99.90;;;;;;5010138;28;20053;-79
2022/12/02 01:47:17;;;;;;;36.88;14.60;;;-7.80;99.90;;;;;;5010253;28;20479;-78
2022/12/02 01:49:45;;;;;;;34.28;14.32;;;-7.80;99.90;;;;;;5026456;28;20140;-78
2022/12/02 01:52:12;;;;;;;38.35;14.55;;;-7.70;99.90;;;;;;5042008;28;20046;-78
2022/12/02 01:54:40;;;;;;;30.60;13.63;;;-7.70;99.90;;;;;;5011105;28;20131;-80
2022/12/02 01:57:12;;;;;;;27.27;12.55;;;-7.70;99.90;;;;;;5011455;28;20062;-79
2022/12/02 01:59:40;;;;;;;;;;;-7.70;99.90;;;;;;5002833;28;20057;-78
2022/12/02 02:02:28;;;;;;;31.02;11.88;;;-7.80;99.90;;;;;;5011583;28;19972;-78
2022/12/02 02:04:59;;;;;;;29.90;11.65;;;-7.80;99.90;;;;;;5009798;28;20045;-80
2022/12/02 02:07:28;;;;;;;28.33;11.70;;;-7.80;99.90;;;;;;5043050;28;20073;-79
2022/12/02 02:09:56;;;;;;;29.00;13.25;;;-7.80;99.90;;;;;;5041913;28;20099;-80
2022/12/02 02:12:25;;;;;;;30.17;12.60;;;-7.90;99.90;;;;;;5011379;28;20506;-78
2022/12/02 02:15:16;;;;;;;28.92;12.77;;;-7.80;99.90;;;;;;4996504;28;20564;-80
2022/12/02 02:17:45;;;;;;;30.20;13.02;;;-7.80;99.90;;;;;;5025296;28;20053;-79
2022/12/02 02:20:19;;;;;;;38.88;14.00;;;-7.80;99.90;;;;;;5026001;28;20046;-79
2022/12/02 02:22:50;;;;;;;;;;;-7.90;99.90;;;;;;5026816;28;20046;-79
2022/12/02 02:25:20;;;;;;;23.75;12.05;;;-7.80;99.90;;;;;;5042875;28;19940;-79
2022/12/02 02:27:53;;;;;;;28.75;13.32;;;-7.90;99.90;;;;;;4992588;28;20209;-79
2022/12/02 02:30:21;;;;;;;37.40;14.18;;;-7.90;99.90;;;;;;5004329;28;20145;-78
2022/12/02 02:32:50;;;;;;;31.88;14.18;;;-7.90;99.90;;;;;;4980910;28;20042;-79
2022/12/02 02:35:18;;;;;;;38.05;13.48;;;-7.90;99.90;;;;;;5009627;28;20100;-77
2022/12/02 02:37:47;;;;;;;32.47;13.60;;;-8.00;99.90;;;;;;5009283;28;20398;-77
2022/12/02 02:40:16;;;;;;;37.90;14.10;;;-8.00;99.90;;;;;;5042851;28;20049;-77
2022/12/02 02:42:52;;;;;;;37.97;15.40;;;-8.00;99.90;;;;;;5011510;28;20054;-80
2022/12/02 02:45:21;;;;;;;32.45;13.18;;;-8.00;99.90;;;;;;5008925;28;20418;-78
2022/12/02 02:47:50;;;;;;;31.65;15.13;;;-8.00;99.90;;;;;;5010195;28;20054;-78
2022/12/02 02:50:17;;;;;;;33.47;13.55;;;-8.00;99.90;;;;;;5011480;28;20103;-78
2022/12/02 02:52:45;;;;;;;32.47;12.73;;;-7.90;99.90;;;;;;5018242;28;20398;-78
2022/12/02 02:55:20;;;;;;;30.95;13.82;;;-7.90;99.90;;;;;;5033233;28;20087;-78
2022/12/02 02:57:50;;;;;;;24.98;11.85;;;-7.90;99.90;;;;;;5013392;28;20519;-78
2022/12/02 03:00:21;;;;;;;33.20;14.25;;;-7.90;99.90;;;;;;5013108;28;20048;-74
2022/12/02 03:02:53;;;;;;;27.15;13.40;;;-7.90;99.90;;;;;;5013096;28;20050;-73
2022/12/02 03:05:22;;;;;;;34.88;12.95;;;-7.90;99.90;;;;;;5009724;28;20054;-73
2022/12/02 03:07:51;;;;;;;27.42;11.48;;;-8.00;99.90;;;;;;4977114;28;20526;-72
2022/12/02 03:10:19;;;;;;;27.73;12.05;;;-7.90;99.90;;;;;;4993080;28;20069;-75
2022/12/02 03:12:52;;;;;;;24.55;11.07;;;-7.90;99.90;;;;;;4993298;28;20124;-73
2022/12/02 03:15:22;;;;;;;22.50;11.75;;;-7.90;99.90;;;;;;4994388;28;20051;-74
2022/12/02 03:17:50;;;;;;;27.10;11.38;;;-7.90;99.90;;;;;;4994620;28;20133;-73
2022/12/02 03:20:18;;;;;;;25.52;10.35;;;-7.90;99.90;;;;;;4976933;28;20039;-73
2022/12/02 03:22:46;;;;;;;27.02;12.05;;;-7.90;99.90;;;;;;5007136;28;20066;-74
2022/12/02 03:25:14;;;;;;;27.95;11.25;;;-7.80;99.90;;;;;;5012272;28;20569;-73
2022/12/02 03:27:41;;;;;;;28.17;12.20;;;-7.80;99.90;;;;;;5014099;28;20077;-74
2022/12/02 03:30:10;;;;;;;26.75;11.27;;;-7.80;99.90;;;;;;5012454;28;20080;-73
2022/12/02 03:32:39;;;;;;;28.80;11.00;;;-7.80;99.90;;;;;;5013934;28;20046;-73
2022/12/02 03:35:08;;;;;;;21.27;10.15;;;-7.80;99.90;;;;;;5013524;28;20449;-72
2022/12/02 03:37:35;;;;;;;28.42;11.05;;;-7.80;99.90;;;;;;5013594;28;20077;-74
2022/12/02 03:40:03;;;;;;;29.33;11.25;;;-7.80;99.90;;;;;;5012241;28;20049;-73
2022/12/02 03:42:31;;;;;;;26.65;11.20;;;-7.90;99.90;;;;;;5012183;28;20418;-74
2022/12/02 03:44:58;;;;;;;28.45;12.05;;;-7.90;99.90;;;;;;5028544;28;20054;-73
2022/12/02 03:47:26;;;;;;;34.15;11.68;;;-7.90;99.90;;;;;;5012360;28;20144;-73
2022/12/02 03:49:54;;;;;;;24.52;11.55;;;-8.00;99.90;;;;;;5011785;28;20049;-73
2022/12/02 03:52:22;;;;;;;29.40;12.40;;;-7.90;99.90;;;;;;5012163;28;20124;-73
2022/12/02 03:54:49;;;;;;;28.00;12.13;;;-7.90;99.90;;;;;;5013281;28;20604;-72
2022/12/02 03:57:17;;;;;;;34.40;12.20;;;-7.90;99.90;;;;;;5010992;28;20042;-73
2022/12/02 03:59:44;;;;;;;26.15;12.27;;;-7.90;99.90;;;;;;5012269;28;20042;-72
2022/12/02 04:02:12;;;;;;;32.30;11.68;;;-7.80;99.90;;;;;;4992165;28;20063;-72
2022/12/02 04:04:39;;;;;;;35.22;12.13;;;-7.80;99.90;;;;;;4992121;28;20050;-72
2022/12/02 04:07:08;;;;;;;24.10;12.00;;;-7.80;99.90;;;;;;5000204;28;20136;-72
2022/12/02 04:09:35;;;;;;;32.88;12.32;;;-7.80;99.90;;;;;;5012947;28;20054;-72
2022/12/02 04:12:02;;;;;;;35.25;12.45;;;-7.80;99.90;;;;;;5012888;28;20080;-73
2022/12/02 04:14:30;;;;;;;31.13;13.77;;;-7.80;99.90;;;;;;5012708;28;20050;-71
2022/12/02 04:16:57;;;;;;;32.40;11.88;;;-7.80;99.90;;;;;;5011806;28;20049;-70
2022/12/02 04:19:25;;;;;;;26.58;12.68;;;-7.80;99.90;;;;;;5010065;28;20427;-71
2022/12/02 04:21:53;;;;;;;28.00;12.48;;;-7.70;99.90;;;;;;5011797;28;20060;-76
2022/12/02 04:24:23;;;;;;;29.08;11.50;;;-7.70;99.90;;;;;;5011310;28;20049;-73
2022/12/02 04:26:50;;;;;;;29.60;12.52;;;-7.70;99.90;;;;;;5012980;28;20518;-76
2022/12/02 04:29:17;;;;;;;37.03;13.25;;;-7.70;99.90;;;;;;5011529;28;20049;-75
2022/12/02 04:31:45;;;;;;;26.55;11.48;;;-7.70;99.90;;;;;;4994685;28;20418;-75
2022/12/02 04:34:12;;;;;;;29.15;12.68;;;-7.70;99.90;;;;;;5009554;28;20041;-76
2022/12/02 04:36:40;;;;;;;97.10;17.20;;;-7.70;99.90;;;;;;5010592;28;20057;-77
2022/12/02 04:39:07;;;;;;;30.13;12.15;;;-7.70;99.90;;;;;;5010877;28;20056;-71
2022/12/02 04:41:36;;;;;;;33.42;12.00;;;-7.70;99.90;;;;;;5011652;28;20041;-72
2022/12/02 04:44:03;;;;;;;29.25;13.07;;;-7.70;99.90;;;;;;5010499;28;20498;-71
2022/12/02 04:46:30;;;;;;;31.58;11.93;;;-7.70;99.90;;;;;;5011645;28;20510;-70
2022/12/02 04:48:58;;;;;;;28.42;13.23;;;-7.70;99.90;;;;;;5012292;28;20069;-78
2022/12/02 04:51:29;;;;;;;25.45;12.65;;;-7.80;99.90;;;;;;5024289;28;20054;-73
2022/12/02 04:53:56;;;;;;;31.80;11.38;;;-7.80;99.90;;;;;;5010776;28;20046;-75
2022/12/02 04:56:24;;;;;;;29.73;11.95;;;-7.80;99.90;;;;;;5012059;28;20116;-76
2022/12/02 04:58:52;;;;;;;27.85;12.15;;;-7.80;99.90;;;;;;5011222;28;20132;-75
2022/12/02 05:01:20;;;;;;;33.20;12.10;;;-7.80;99.90;;;;;;5010947;28;20512;-75
2022/12/02 05:03:47;;;;;;;39.78;14.05;;;-7.80;99.90;;;;;;5011885;28;20531;-75
2022/12/02 05:06:15;;;;;;;34.83;13.82;;;-7.80;99.90;;;;;;4994358;28;20596;-75
2022/12/02 05:08:42;;;;;;;29.52;13.10;;;-7.90;99.90;;;;;;4990086;28;20065;-76
2022/12/02 05:11:10;;;;;;;36.25;13.05;;;-7.90;99.90;;;;;;5020273;28;20151;-71
2022/12/02 05:13:37;;;;;;;30.40;13.70;;;-7.90;99.90;;;;;;5010303;28;20049;-72
2022/12/02 05:16:07;;;;;;;30.67;13.02;;;-7.90;99.90;;;;;;5011622;28;20061;-72
2022/12/02 05:18:36;;;;;;;41.75;12.40;;;-7.90;99.90;;;;;;5012609;28;20046;-72
2022/12/02 05:21:04;;;;;;;36.75;12.52;;;-7.80;99.90;;;;;;5011519;28;20050;-70
2022/12/02 05:23:31;;;;;;;30.67;12.43;;;-7.90;99.90;;;;;;5012050;28;20112;-71
2022/12/02 05:26:01;;;;;;;37.60;12.90;;;-7.80;99.90;;;;;;5044447;28;20137;-70
2022/12/02 05:28:28;;;;;;;39.85;13.25;;;-7.80;99.90;;;;;;5011008;28;20529;-75
2022/12/02 05:30:56;;;;;;;31.55;12.25;;;-7.90;99.90;;;;;;5011981;28;20075;-69
2022/12/02 05:33:25;;;;;;;28.33;10.98;;;-7.90;99.90;;;;;;5007635;28;20050;-74
2022/12/02 05:35:52;;;;;;;30.38;11.68;;;-7.90;99.90;;;;;;5009680;28;20058;-75
2022/12/02 05:38:19;;;;;;;32.38;11.85;;;-7.90;99.90;;;;;;4999450;28;20111;-76
2022/12/02 05:40:48;;;;;;;33.45;11.95;;;-7.90;99.90;;;;;;5002295;28;20084;-76
2022/12/02 05:43:19;;;;;;;27.35;11.60;;;-7.90;99.90;;;;;;5044681;28;20116;-75
2022/12/02 05:45:47;;;;;;;29.23;11.95;;;-7.90;99.90;;;;;;5011240;28;20054;-75
2022/12/02 05:48:17;;;;;;;28.90;11.45;;;-7.90;99.90;;;;;;4999241;28;20041;-75
2022/12/02 05:50:47;;;;;;;34.90;13.13;;;-7.80;99.90;;;;;;5011160;28;20120;-75
2022/12/02 05:53:22;;;;;;;37.42;13.65;;;-7.90;99.90;;;;;;5009566;28;20347;-77
2022/12/02 05:55:50;;;;;;;30.27;10.45;;;-7.90;99.90;;;;;;5008512;28;20510;-78
2022/12/02 05:58:18;;;;;;;29.73;11.80;;;-7.90;99.90;;;;;;5008542;28;20517;-75
2022/12/02 06:00:54;;;;;;;34.85;11.80;;;-7.90;99.90;;;;;;5010624;28;20058;-79
2022/12/02 06:03:22;;;;;;;36.85;12.52;;;-7.90;99.90;;;;;;5008584;28;20052;-73
2022/12/02 06:05:52;;;;;;;40.80;11.32;;;-7.90;99.90;;;;;;5007047;28;20057;-73
2022/12/02 06:08:22;;;;;;;30.40;11.30;;;-7.90;99.90;;;;;;5011553;28;20054;-72
2022/12/02 06:10:52;;;;;;;32.92;11.52;;;-7.90;99.90;;;;;;5010678;28;20153;-70
2022/12/02 06:13:23;;;;;;;35.33;12.07;;;-8.00;99.90;;;;;;5005838;28;20089;-72
2022/12/02 06:15:51;;;;;;;33.10;11.73;;;-8.00;99.90;;;;;;5004783;28;20069;-71
2022/12/02 06:18:22;;;;;;;31.33;13.23;;;-7.90;99.90;;;;;;5005661;28;20046;-72
2022/12/02 06:20:56;;;;;;;29.80;11.25;;;-7.90;99.90;;;;;;5004834;28;20050;-72
2022/12/02 06:23:27;;;;;;;23.15;11.65;;;-8.00;99.90;;;;;;5005913;28;20065;-71
2022/12/02 06:25:56;;;;;;;49.00;12.57;;;-8.00;99.90;;;;;;5009536;28;20064;-73
2022/12/02 06:28:29;;;;;;;38.03;11.70;;;-8.00;99.90;;;;;;5013392;28;20050;-73
2022/12/02 06:31:00;;;;;;;27.33;11.27;;;-8.00;99.90;;;;;;4996880;28;20502;-72
2022/12/02 06:33:31;;;;;;;39.22;14.02;;;-8.00;99.90;;;;;;5014435;28;20054;-73
2022/12/02 06:36:04;;;;;;;26.45;11.68;;;-8.00;99.90;;;;;;5010606;28;20156;-71
2022/12/02 06:38:35;;;;;;;29.13;11.90;;;-7.90;99.90;;;;;;5030749;28;20165;-72
2022/12/02 06:41:15;;;;;;;29.25;11.55;;;-7.90;99.90;;;;;;5017679;28;20069;-72
2022/12/02 06:45:03;;;;;;;30.17;12.13;;;-7.90;99.90;;;;;;5031674;28;20097;-78
2022/12/02 06:46:34;;;;;;;34.75;11.85;;;-7.90;99.90;;;;;;5006594;28;20559;-77
2022/12/02 06:49:14;;;;;;;36.65;12.88;;;-7.90;99.90;;;;;;5009974;28;20052;-77
2022/12/02 06:51:43;;;;;;;35.65;12.75;;;-7.90;99.90;;;;;;4994944;28;20054;-77
2022/12/02 06:54:20;;;;;;;29.95;13.05;;;-7.80;99.90;;;;;;5010801;28;20034;-78
2022/12/02 06:56:49;;;;;;;41.63;13.38;;;-7.80;99.90;;;;;;5013557;28;20042;-80
2022/12/02 06:59:22;;;;;;;52.55;14.02;;;-7.70;99.90;;;;;;5013206;28;20371;-79
2022/12/02 07:01:54;;;;;;;42.22;15.50;;;-7.70;99.90;;;;;;5012716;28;20054;-73
2022/12/02 07:04:35;;;;;;;42.13;14.23;;;-7.60;99.90;;;;;;5013105;28;20053;-72
2022/12/02 07:07:18;;;;;;;29.45;11.68;;;-7.60;99.90;;;;;;5014420;28;20053;-72
2022/12/02 07:09:48;;;;;;;40.00;14.13;;;-7.50;99.90;;;;;;4996472;28;20077;-71
2022/12/02 07:12:20;;;;;;;45.08;11.55;;;-7.50;99.90;;;;;;5014089;28;20048;-70
2022/12/02 07:14:50;;;;;;;49.97;14.00;;;-7.50;99.90;;;;;;5021421;28;20505;-72
2022/12/02 07:17:24;;;;;;;41.03;12.77;;;-7.40;99.90;;;;;;5007296;28;20042;-70
2022/12/02 07:20:00;;;;;;;35.90;12.07;;;-7.30;99.90;;;;;;5003900;28;20042;-72
2022/12/02 07:22:35;;;;;;;35.22;11.98;;;-7.30;99.90;;;;;;4996340;28;20045;-71
2022/12/02 07:25:36;;;;;;;40.67;11.63;;;-7.20;99.90;;;;;;5012443;28;20083;-70
2022/12/02 07:28:22;;;;;;;27.35;10.25;;;-7.20;99.90;;;;;;4994634;28;20112;-74
2022/12/02 07:30:57;;;;;;;29.88;10.32;;;-7.10;99.90;;;;;;4994343;28;20054;-73
2022/12/02 07:33:25;;;;;;;32.85;10.82;;;-7.10;99.90;;;;;;5008573;28;20104;-73
2022/12/02 07:35:52;;;;;;;30.85;10.45;;;-7.10;99.90;;;;;;5011691;28;20192;-74
2022/12/02 07:38:21;;;;;;;26.88;10.90;;;-7.10;99.90;;;;;;5008477;28;20046;-74
2022/12/02 07:40:49;;;;;;;23.95;10.05;;;-7.00;99.90;;;;;;5011677;28;20537;-74
2022/12/02 07:43:16;;;;;;;37.13;10.52;;;-6.90;99.90;;;;;;5012138;28;20128;-73
2022/12/02 07:45:44;;;;;;;24.92;10.52;;;-6.90;99.90;;;;;;5010368;28;20486;-75
2022/12/02 07:48:11;;;;;;;29.48;12.13;;;-6.80;99.90;;;;;;5015836;28;20131;-74
2022/12/02 07:50:39;;;;;;;30.80;11.18;;;-6.80;99.90;;;;;;5010027;28;20053;-74
2022/12/02 07:53:06;;;;;;;24.90;11.25;;;-6.70;99.90;;;;;;5009552;28;20046;-74
2022/12/02 07:55:35;;;;;;;40.85;12.00;;;-6.70;99.90;;;;;;5009413;28;20513;-73
2022/12/02 07:58:02;;;;;;;31.98;11.55;;;-6.60;99.90;;;;;;5009660;28;20072;-74
2022/12/02 08:00:30;;;;;;;36.58;11.75;;;-6.50;99.90;;;;;;5009099;28;20295;-74
2022/12/02 08:02:57;;;;;;;33.75;12.50;;;-6.50;99.90;;;;;;5006082;28;20065;-76
2022/12/02 08:05:25;;;;;;;39.90;13.15;;;-6.40;99.90;;;;;;5008182;28;20139;-76
2022/12/02 08:07:52;;;;;;;53.55;12.82;;;-6.30;99.90;;;;;;5006349;28;20050;-78
2022/12/02 08:10:19;;;;;;;39.90;12.27;;;-6.20;99.90;;;;;;5006979;28;20128;-76
2022/12/02 08:12:48;;;;;;;36.15;10.93;;;-6.10;99.90;;;;;;5007584;28;20053;-78
2022/12/02 08:15:16;;;;;;;24.25;10.23;;;-6.00;99.90;;;;;;5009138;28;20060;-76
2022/12/02 08:17:44;;;;;;;29.65;11.07;;;-6.00;99.90;;;;;;4991756;28;20469;-78
2022/12/02 08:20:12;;;;;;;33.58;10.98;;;-5.90;99.90;;;;;;5005927;28;20776;-76
2022/12/02 08:22:40;;;;;;;32.50;11.45;;;-5.90;99.90;;;;;;5006615;28;20042;-76
2022/12/02 08:25:09;;;;;;;30.85;9.65;;;-5.80;99.90;;;;;;5006402;28;20049;-76
2022/12/02 08:27:39;;;;;;;28.08;10.38;;;-5.80;99.90;;;;;;5002698;28;20045;-75
2022/12/02 08:30:11;;;;;;;26.85;9.85;;;-5.70;99.90;;;;;;5003994;28;20049;-77
2022/12/02 08:32:38;;;;;;;28.98;9.85;;;-5.70;99.90;;;;;;5005248;28;20148;-75
2022/12/02 08:35:07;;;;;;;34.15;10.35;;;-5.70;99.90;;;;;;5004657;28;20056;-75
2022/12/02 08:37:34;;;;;;;24.48;9.13;;;-5.70;99.90;;;;;;5003352;28;20054;-78
2022/12/02 08:40:02;;;;;;;22.50;9.77;;;-5.70;99.90;;;;;;5004626;28;20479;-75
2022/12/02 08:42:30;;;;;;;22.73;9.55;;;-5.70;99.90;;;;;;5005925;28;20053;-77
2022/12/02 08:44:58;;;;;;;30.10;10.95;;;-5.60;99.90;;;;;;5006013;28;20097;-77
2022/12/02 08:47:26;;;;;;;25.27;10.80;;;-5.50;99.90;;;;;;5003914;28;20616;-81
2022/12/02 08:49:54;;;;;;;32.28;11.13;;;-5.50;99.90;;;;;;5003898;28;20133;-75
2022/12/02 08:52:21;;;;;;;30.00;11.80;;;-5.40;99.90;;;;;;5003279;28;20049;-75
2022/12/02 08:54:48;;;;;;;41.08;11.55;;;-5.40;99.90;;;;;;5005621;28;20050;-77
2022/12/02 08:57:16;;;;;;;30.52;12.57;;;-5.30;99.90;;;;;;5004039;28;20050;-79
2022/12/02 08:59:43;;;;;;;37.63;12.25;;;-5.30;99.90;;;;;;5005779;28;20042;-76
2022/12/02 09:02:10;;;;;;;40.42;12.77;;;-5.20;99.90;;;;;;5005612;28;20050;-78
2022/12/02 09:04:39;;;;;;;44.85;15.25;;;-5.20;99.90;;;;;;5004921;28;20060;-80
2022/12/02 09:07:07;;;;;;;30.15;12.35;;;-5.10;99.90;;;;;;5005473;28;20050;-80
2022/12/02 09:09:34;;;;;;;29.70;11.98;;;-5.10;99.90;;;;;;5003084;28;20050;-78
2022/12/02 09:12:02;;;;;;;42.55;14.80;;;-5.10;99.90;;;;;;5002283;28;20454;-76
2022/12/02 09:14:30;;;;;;;32.15;13.05;;;-5.10;99.90;;;;;;5004596;28;20507;-78
2022/12/02 09:16:58;;;;;;;41.60;14.50;;;-5.10;99.90;;;;;;5005310;28;20530;-78
2022/12/02 09:19:25;;;;;;;32.72;13.10;;;-4.90;99.90;;;;;;5005713;28;20510;-78
2022/12/02 09:21:54;;;;;;;36.42;14.50;;;-4.70;99.90;;;;;;5003951;28;20050;-76
2022/12/02 09:24:21;;;;;;;35.13;14.07;;;-3.90;99.90;;;;;;5004358;28;20049;-77
2022/12/02 09:26:48;;;;;;;34.03;13.88;;;-3.10;99.90;;;;;;5002751;28;20418;-75
2022/12/02 09:29:16;;;;;;;39.97;14.35;;;-2.30;99.90;;;;;;5004044;28;20045;-75
2022/12/02 09:31:43;;;;;;;41.40;15.27;;;-1.70;99.90;;;;;;5003838;28;20097;-76
2022/12/02 09:34:10;;;;;;;37.70;14.60;;;-1.40;99.90;;;;;;5004583;28;20421;-74
2022/12/02 09:36:38;;;;;;;42.65;15.60;;;-1.50;99.90;;;;;;5004371;28;20042;-74
2022/12/02 09:39:06;;;;;;;37.70;14.85;;;-1.60;99.90;;;;;;5004984;28;20054;-75
2022/12/02 09:41:34;;;;;;;33.95;13.50;;;-1.60;99.90;;;;;;5003750;28;20042;-75
2022/12/02 09:44:01;;;;;;;36.75;15.35;;;-1.80;99.90;;;;;;5004997;28;20057;-75
2022/12/02 09:46:29;;;;;;;34.50;13.57;;;-1.60;99.90;;;;;;5002957;28;20133;-75
2022/12/02 09:48:57;;;;;;;29.13;12.63;;;-1.50;99.90;;;;;;5002990;28;20054;-77
2022/12/02 09:51:25;;;;;;;40.85;14.45;;;-1.40;99.90;;;;;;5005405;28;20057;-75
2022/12/02 09:53:54;;;;;;;32.60;13.02;;;-1.60;99.90;;;;;;5004581;28;20064;-74
2022/12/02 09:56:23;;;;;;;33.38;13.55;;;-2.00;99.90;;;;;;5005827;28;20046;-77
2022/12/02 09:58:54;;;;;;;29.17;12.80;;;-2.30;99.90;;;;;;5005576;28;20145;-77
2022/12/02 10:01:24;;;;;;;29.60;13.52;;;-2.40;99.90;;;;;;5007488;28;20050;-76
2022/12/02 10:03:52;;;;;;;32.15;12.75;;;-2.30;99.90;;;;;;5008350;28;20050;-75
2022/12/02 10:06:24;;;;;;;38.20;13.65;;;-2.10;99.90;;;;;;5005350;28;20121;-77
2022/12/02 10:08:52;;;;;;;34.70;13.27;;;-2.00;99.90;;;;;;5008377;28;20053;-76
2022/12/02 10:11:26;;;;;;;43.17;14.20;;;-1.80;99.90;;;;;;5008304;28;20490;-76
2022/12/02 10:13:54;;;;;;;36.92;12.70;;;-1.60;99.90;;;;;;5036206;28;20561;-75
2022/12/02 10:16:21;;;;;;;34.97;12.98;;;-1.50;99.90;;;;;;5002097;28;20045;-78
2022/12/02 10:18:49;;;;;;;34.88;13.13;;;-1.50;99.90;;;;;;5009078;28;20077;-75
2022/12/02 10:21:17;;;;;;;29.52;12.63;;;-1.50;99.90;;;;;;5041972;28;20049;-76
2022/12/02 10:23:56;;;;;;;31.15;12.38;;;-1.40;99.90;;;;;;5009593;28;20151;-77
2022/12/02 10:26:25;;;;;;;30.58;12.45;;;-1.30;99.90;;;;;;5009928;28;20137;-76
2022/12/02 10:29:03;;;;;;;35.17;12.32;;;-1.10;99.90;;;;;;5011296;28;20054;-77
2022/12/02 10:31:30;;;;;;;37.55;13.15;;;-1.10;99.90;;;;;;5010016;28;20050;-76
2022/12/02 10:34:01;;;;;;;36.00;14.98;;;-1.30;99.90;;;;;;5024761;28;20069;-76
2022/12/02 10:36:35;;;;;;;41.95;15.27;;;-1.40;99.90;;;;;;5010565;28;20054;-77
2022/12/02 10:39:28;;;;;;;39.03;14.30;;;-1.30;99.90;;;;;;5011239;28;20494;-76
2022/12/02 10:42:19;;;;;;;;;;;-0.90;99.90;;;;;;5010617;28;20053;-77
2022/12/02 10:44:47;;;;;;;30.25;14.80;;;-0.70;99.90;;;;;;4991094;28;20394;-75
2022/12/02 10:47:21;;;;;;;41.40;15.68;;;-0.90;99.90;;;;;;4991456;28;20089;-77
2022/12/02 10:49:51;;;;;;;36.20;16.35;;;-1.30;99.90;;;;;;4991430;28;20101;-76
2022/12/02 10:52:24;;;;;;;41.85;14.93;;;-1.60;99.90;;;;;;4996836;28;20057;-76
2022/12/02 10:54:54;;;;;;;39.42;14.82;;;-1.80;99.90;;;;;;5009913;28;20446;-76
2022/12/02 10:57:29;;;;;;;44.25;15.35;;;-1.90;99.90;;;;;;5008945;28;20042;-77
2022/12/02 10:59:59;;;;;;;30.88;14.80;;;-2.10;99.90;;;;;;5010098;28;20053;-75
2022/12/02 11:02:33;;;;;;;38.72;13.50;;;-2.20;99.90;;;;;;5034844;28;20088;-75
2022/12/02 11:05:10;;;;;;;42.42;13.95;;;-2.30;99.90;;;;;;5010442;28;20085;-76
2022/12/02 11:07:37;;;;;;;33.63;13.05;;;-2.40;99.90;;;;;;5009296;28;20132;-78
2022/12/02 11:10:06;;;;;;;37.72;13.35;;;-2.50;99.90;;;;;;5008947;28;20046;-76
2022/12/02 11:13:29;;;;;;;41.13;14.00;;;-2.60;99.90;;;;;;5014042;28;20505;-75
2022/12/02 11:16:32;;;;;;;42.70;13.85;;;-2.70;99.90;;;;;;4993212;28;20080;-76
2022/12/02 11:19:05;;;;;;;33.15;13.50;;;-2.70;99.90;;;;;;4994166;28;20133;-74
2022/12/02 11:21:34;;;;;;;;;;;-2.80;99.90;;;;;;4994621;28;20058;-74
2022/12/02 11:24:36;;;;;;;32.95;10.63;;;-2.90;99.90;;;;;;4993806;28;20359;-75
2022/12/02 11:27:12;;;;;;;30.98;11.45;;;-3.10;99.90;;;;;;4994060;28;20138;-75
2022/12/02 11:29:43;;;;;;;36.58;12.90;;;-3.20;99.90;;;;;;4994215;28;20073;-75
2022/12/02 11:32:18;;;;;;;32.88;12.57;;;-3.30;99.90;;;;;;4993823;28;20050;-76
2022/12/02 11:34:50;;;;;;;35.75;11.50;;;-3.40;99.90;;;;;;4994132;28;20106;-75
2022/12/02 11:37:41;;;;;;;31.35;12.80;;;-3.50;99.90;;;;;;4994243;28;20062;-73
2022/12/02 11:40:59;;;;;;;32.55;11.50;;;-3.60;99.90;;;;;;4994187;28;20050;-74
2022/12/02 11:44:08;;;;;;;36.17;11.40;;;-3.70;99.90;;;;;;5013866;28;20078;-75
2022/12/02 11:46:51;;;;;;;33.78;12.25;;;-3.60;99.90;;;;;;5012797;28;20133;-75
2022/12/02 11:49:32;;;;;;;46.15;12.65;;;-3.40;99.90;;;;;;5013633;28;20046;-75
2022/12/02 11:52:17;;;;;;;30.30;12.48;;;-3.20;99.90;;;;;;5011860;28;20061;-74
2022/12/02 11:54:50;;;;;;;34.22;14.20;;;-3.20;99.90;;;;;;5010620;28;20058;-75
2022/12/02 11:57:28;;;;;;;32.90;13.77;;;-3.40;99.90;;;;;;4994231;28;20050;-74
2022/12/02 11:59:56;;;;;;;43.15;14.85;;;-3.60;99.90;;;;;;4991463;28;20070;-74
2022/12/02 12:02:30;;;;;;;36.03;13.70;;;-3.70;99.90;;;;;;4992187;28;20488;-74
2022/12/02 12:05:04;;;;;;;49.72;17.00;;;-3.90;99.90;;;;;;5000744;28;20104;-74
2022/12/02 12:07:43;;;;;;;49.05;17.10;;;-4.10;99.90;;;;;;5013553;28;20084;-75
2022/12/02 12:10:26;;;;;;;38.25;14.85;;;-4.10;99.90;;;;;;5028332;28;20081;-73
2022/12/02 12:13:18;;;;;;;;;;;-4.20;99.90;;;;;;5013351;28;20081;-73
2022/12/02 12:16:07;;;;;;;36.33;15.35;;;-4.20;99.90;;;;;;4991929;28;19926;-74
2022/12/02 12:18:47;;;;;;;31.95;13.55;;;-4.30;99.90;;;;;;4994031;28;20188;-74
2022/12/02 12:21:41;;;;;;;35.15;15.05;;;-4.40;99.90;;;;;;4993243;28;20129;-73
2022/12/02 12:24:41;;;;;;;35.78;13.25;;;-4.40;99.90;;;;;;4992179;28;20050;-74
2022/12/02 12:27:13;;;;;;;32.20;13.90;;;-4.50;99.90;;;;;;4974673;28;20050;-75
2022/12/02 12:29:41;;;;;;;34.80;13.23;;;-4.60;99.90;;;;;;4990618;28;20471;-73
2022/12/02 12:32:10;;;;;;;30.35;12.80;;;-4.70;99.90;;;;;;5000668;28;20089;-74
2022/12/02 12:34:38;;;;;;;33.85;13.55;;;-4.70;99.90;;;;;;5009790;28;20077;-74
2022/12/02 12:37:06;;;;;;;30.27;13.55;;;-4.80;99.90;;;;;;5012942;28;20100;-74
2022/12/02 12:39:33;;;;;;;29.77;13.45;;;-4.80;99.90;;;;;;5012829;28;20050;-74
2022/12/02 12:42:00;;;;;;;25.30;11.90;;;-4.90;99.90;;;;;;5012028;28;20108;-74
2022/12/02 12:44:31;;;;;;;27.80;11.48;;;-4.90;99.90;;;;;;5012589;28;20081;-74
2022/12/02 12:47:01;;;;;;;34.33;13.25;;;-4.90;99.90;;;;;;4995534;28;20057;-72
2022/12/02 12:49:29;;;;;;;27.40;10.70;;;-5.00;99.90;;;;;;5010573;28;20489;-72